Time;durP1;ratioP1;P1;durP2;ratioP2;P2;SDS_P1;SDS_P2;PMS_P1;PMS_P2;Temp;Humidity;BMP_temperature;BMP_pressure;BME280_temperature;BME280_humidity;BME280_pressure;Samples;Min_cycle;Max_cycle;Signal;HPM_P1;HPM_P2
2022/04/09 00:01:18;;;;;;;2.00;0.70;;;1.40;99.90;;;;;;5008446;28;20508;-68
2022/04/09 00:03:45;;;;;;;2.37;0.60;;;1.40;99.90;;;;;;5008141;28;20576;-66
2022/04/09 00:06:13;;;;;;;1.50;0.60;;;1.50;99.90;;;;;;5007618;28;20457;-67
2022/04/09 00:08:40;;;;;;;1.80;0.70;;;1.50;99.90;;;;;;5008467;28;20521;-66
2022/04/09 00:11:08;;;;;;;1.80;0.70;;;1.60;99.90;;;;;;5008310;28;20548;-66
2022/04/09 00:13:35;;;;;;;1.87;0.90;;;1.60;99.90;;;;;;5007997;28;20849;-65
2022/04/09 00:16:02;;;;;;;2.10;0.70;;;1.70;99.90;;;;;;5007749;28;20454;-67
2022/04/09 00:18:29;;;;;;;2.20;0.90;;;1.70;99.90;;;;;;5009895;28;20450;-65
2022/04/09 00:20:56;;;;;;;2.00;0.90;;;1.70;99.90;;;;;;5011560;28;21085;-65
2022/04/09 00:23:25;;;;;;;1.80;0.90;;;1.70;99.90;;;;;;5010640;28;20527;-65
2022/04/09 00:25:51;;;;;;;1.87;0.97;;;1.80;99.90;;;;;;5010951;28;20445;-65
2022/04/09 00:28:18;;;;;;;2.43;1.17;;;1.80;99.90;;;;;;5011575;28;20453;-65
2022/04/09 00:30:45;;;;;;;1.77;0.83;;;1.90;99.90;;;;;;5011959;28;20532;-65
2022/04/09 00:33:12;;;;;;;1.97;1.00;;;1.80;99.90;;;;;;5010954;28;20557;-65
2022/04/09 00:35:39;;;;;;;1.80;1.00;;;1.90;99.90;;;;;;5010926;28;20454;-67
2022/04/09 00:38:06;;;;;;;1.80;0.90;;;1.90;99.90;;;;;;5011156;28;20442;-65
2022/04/09 00:40:34;;;;;;;2.00;1.00;;;1.90;99.90;;;;;;5011830;28;20545;-64
2022/04/09 00:43:01;;;;;;;1.70;0.90;;;1.90;99.90;;;;;;5011643;28;20568;-66
2022/04/09 00:45:28;;;;;;;2.83;1.47;;;2.00;99.90;;;;;;5010642;28;20458;-65
2022/04/09 00:47:55;;;;;;;2.40;1.63;;;1.90;99.90;;;;;;5011647;28;20537;-65
2022/04/09 00:50:22;;;;;;;2.60;1.83;;;1.90;99.90;;;;;;5011037;28;20457;-65
2022/04/09 00:52:51;;;;;;;3.33;1.97;;;1.90;99.90;;;;;;5010673;28;20458;-65
2022/04/09 00:56:12;;;;;;;2.83;1.83;;;1.90;99.90;;;;;;5010055;28;20450;-66
2022/04/09 00:58:13;;;;;;;3.07;1.77;;;1.90;99.90;;;;;;5010529;28;20508;-64
2022/04/09 01:00:41;;;;;;;2.17;1.40;;;1.90;99.90;;;;;;5011229;28;20442;-66
2022/04/09 01:03:10;;;;;;;2.70;1.83;;;1.90;99.90;;;;;;5010023;28;20489;-66
2022/04/09 01:05:38;;;;;;;2.73;1.90;;;1.90;99.90;;;;;;5010615;28;20456;-66
2022/04/09 01:08:06;;;;;;;2.47;1.60;;;1.90;99.90;;;;;;5011100;28;20446;-66
2022/04/09 01:10:33;;;;;;;3.90;2.20;;;1.90;99.90;;;;;;5010798;28;20453;-66
2022/04/09 01:13:01;;;;;;;2.77;1.80;;;1.90;99.90;;;;;;5009889;28;20470;-63
2022/04/09 01:15:29;;;;;;;2.93;1.93;;;1.90;99.90;;;;;;4991401;28;20807;-66
2022/04/09 01:17:56;;;;;;;2.97;2.00;;;2.00;99.90;;;;;;4992613;28;20447;-65
2022/04/09 01:20:26;;;;;;;3.17;1.87;;;2.00;99.90;;;;;;4992893;28;20451;-66
2022/04/09 01:22:54;;;;;;;2.93;2.30;;;2.00;99.90;;;;;;5011299;28;20940;-66
2022/04/09 01:25:21;;;;;;;2.50;1.87;;;2.00;99.90;;;;;;5011362;28;20441;-66
2022/04/09 01:27:49;;;;;;;3.87;2.43;;;2.00;99.90;;;;;;5011901;28;20450;-66
2022/04/09 01:30:17;;;;;;;3.10;2.33;;;2.00;99.90;;;;;;5011018;28;20456;-65
2022/04/09 01:32:44;;;;;;;2.70;2.10;;;2.10;99.90;;;;;;5011448;28;20465;-66
2022/04/09 01:35:11;;;;;;;2.70;2.10;;;2.10;99.90;;;;;;5010957;28;20447;-66
2022/04/09 01:37:38;;;;;;;2.80;2.10;;;2.10;99.90;;;;;;5011645;28;20449;-67
2022/04/09 01:40:07;;;;;;;3.30;2.70;;;2.00;99.90;;;;;;5012633;28;20537;-67
2022/04/09 01:42:36;;;;;;;4.00;2.60;;;2.10;99.90;;;;;;5011193;28;20489;-67
2022/04/09 01:45:04;;;;;;;6.50;3.03;;;2.10;99.90;;;;;;5010913;28;20458;-67
2022/04/09 01:47:30;;;;;;;3.23;2.40;;;2.10;99.90;;;;;;5011579;28;20449;-66
2022/04/09 01:49:57;;;;;;;5.63;2.60;;;2.10;99.90;;;;;;5011642;28;20472;-66
2022/04/09 01:52:24;;;;;;;4.30;3.17;;;2.10;99.90;;;;;;5011287;28;21006;-68
2022/04/09 01:54:51;;;;;;;4.63;3.27;;;2.20;99.90;;;;;;5010502;28;20528;-68
2022/04/09 01:57:19;;;;;;;5.20;3.53;;;2.20;99.90;;;;;;5011645;28;20458;-66
2022/04/09 01:59:46;;;;;;;4.50;3.33;;;2.20;99.90;;;;;;5012132;28;20536;-66
2022/04/09 02:02:13;;;;;;;4.47;3.27;;;2.20;99.90;;;;;;5011895;28;20500;-66
2022/04/09 02:04:39;;;;;;;5.77;3.40;;;2.20;99.90;;;;;;5010539;28;20452;-67
2022/04/09 02:07:06;;;;;;;7.00;3.47;;;2.20;99.90;;;;;;5011309;28;20445;-66
2022/04/09 02:09:34;;;;;;;3.80;3.10;;;2.20;99.90;;;;;;5011355;28;20570;-66
2022/04/09 02:12:00;;;;;;;7.80;3.10;;;2.30;99.90;;;;;;5010955;28;20473;-66
2022/04/09 02:14:28;;;;;;;5.50;3.10;;;2.30;99.90;;;;;;5009966;28;21149;-68
2022/04/09 02:16:55;;;;;;;5.03;3.30;;;2.20;99.90;;;;;;5011045;28;20446;-67
2022/04/09 02:19:22;;;;;;;5.30;4.20;;;2.20;99.90;;;;;;5011096;28;20948;-68
2022/04/09 02:21:49;;;;;;;5.47;3.63;;;2.20;99.90;;;;;;5010659;28;20866;-66
2022/04/09 02:24:16;;;;;;;4.37;3.20;;;2.30;99.90;;;;;;5009922;28;20452;-68
2022/04/09 02:26:43;;;;;;;5.67;3.90;;;2.30;99.90;;;;;;5011237;28;20453;-67
2022/04/09 02:29:10;;;;;;;7.10;4.33;;;2.30;99.90;;;;;;5011245;28;20536;-66
2022/04/09 02:31:38;;;;;;;6.30;4.77;;;2.30;99.90;;;;;;5011078;28;20454;-67
2022/04/09 02:34:05;;;;;;;5.73;4.00;;;2.30;99.90;;;;;;5010295;28;20449;-67
2022/04/09 02:36:33;;;;;;;5.63;4.10;;;2.40;99.90;;;;;;5010847;28;20454;-67
2022/04/09 02:39:00;;;;;;;5.17;4.20;;;2.40;99.90;;;;;;5010715;28;20477;-66
2022/04/09 02:41:28;;;;;;;5.57;3.97;;;2.40;99.90;;;;;;5010140;28;20448;-68
2022/04/09 02:43:55;;;;;;;8.93;4.07;;;2.40;99.90;;;;;;5010381;28;20517;-67
2022/04/09 02:46:22;;;;;;;6.00;4.57;;;2.40;99.90;;;;;;5010220;28;20446;-67
2022/04/09 02:48:50;;;;;;;5.13;4.17;;;2.40;99.90;;;;;;5010524;28;21071;-67
2022/04/09 02:51:17;;;;;;;5.70;3.93;;;2.50;99.90;;;;;;5010555;28;20456;-68
2022/04/09 02:53:44;;;;;;;5.87;4.17;;;2.40;99.90;;;;;;5009566;28;20470;-67
2022/04/09 02:56:11;;;;;;;7.77;4.60;;;2.40;99.90;;;;;;5010126;28;20445;-68
2022/04/09 02:58:38;;;;;;;8.40;4.43;;;2.50;99.90;;;;;;5010502;28;20462;-67
2022/04/09 03:01:05;;;;;;;6.97;4.93;;;2.50;99.90;;;;;;5010593;28;20556;-68
2022/04/09 03:03:32;;;;;;;7.53;4.90;;;2.50;99.90;;;;;;5009975;28;21084;-67
2022/04/09 03:06:00;;;;;;;6.37;4.63;;;2.50;99.90;;;;;;5009322;28;20536;-68
2022/04/09 03:08:27;;;;;;;6.43;4.37;;;2.60;99.90;;;;;;5010138;28;20456;-67
2022/04/09 03:10:54;;;;;;;6.60;4.53;;;2.50;99.90;;;;;;5010898;28;20596;-67
2022/04/09 03:13:21;;;;;;;7.00;4.53;;;2.60;99.90;;;;;;5010101;28;20470;-67
2022/04/09 03:15:48;;;;;;;6.70;5.60;;;2.60;99.90;;;;;;5009647;28;20473;-67
2022/04/09 03:18:15;;;;;;;6.70;4.70;;;2.60;99.90;;;;;;5010537;28;20460;-67
2022/04/09 03:20:42;;;;;;;7.33;5.00;;;2.70;99.90;;;;;;5010120;28;20461;-68
2022/04/09 03:23:10;;;;;;;6.47;4.70;;;2.60;99.90;;;;;;5001817;28;20478;-67
2022/04/09 03:25:37;;;;;;;5.70;4.20;;;2.70;99.90;;;;;;5009431;28;20449;-68
2022/04/09 03:28:04;;;;;;;6.57;4.40;;;2.70;99.90;;;;;;5010214;28;20450;-68
2022/04/09 03:30:31;;;;;;;5.40;4.30;;;2.70;99.90;;;;;;5010112;28;20640;-67
2022/04/09 03:32:58;;;;;;;6.20;4.47;;;2.80;99.90;;;;;;5009571;28;20473;-67
2022/04/09 03:35:25;;;;;;;7.40;5.07;;;2.70;99.90;;;;;;5009496;28;20476;-67
2022/04/09 03:37:52;;;;;;;5.80;4.60;;;2.80;99.90;;;;;;5010404;28;20457;-67
2022/04/09 03:40:20;;;;;;;5.60;4.50;;;2.80;99.90;;;;;;5009851;28;20453;-68
2022/04/09 03:42:47;;;;;;;6.30;4.70;;;2.80;99.90;;;;;;5009748;28;20596;-68
2022/04/09 03:45:14;;;;;;;6.87;5.20;;;2.80;99.90;;;;;;5009149;28;20441;-69
2022/04/09 03:47:41;;;;;;;6.80;4.93;;;2.90;99.90;;;;;;5009969;28;20831;-67
2022/04/09 03:50:08;;;;;;;6.40;5.13;;;2.90;99.90;;;;;;5010183;28;20472;-66
2022/04/09 03:52:35;;;;;;;7.57;5.10;;;2.90;99.90;;;;;;5010334;28;20473;-67
2022/04/09 03:55:02;;;;;;;7.33;5.07;;;2.90;99.90;;;;;;5012730;28;20564;-69
2022/04/09 03:57:30;;;;;;;7.70;6.30;;;2.90;99.90;;;;;;5016798;28;20526;-68
2022/04/09 03:59:57;;;;;;;8.10;5.63;;;2.90;99.90;;;;;;5029968;28;21337;-67
2022/04/09 04:02:24;;;;;;;8.00;6.27;;;3.00;99.90;;;;;;5033380;28;21116;-67
2022/04/09 04:04:51;;;;;;;8.57;6.93;;;3.00;99.90;;;;;;5032208;28;20441;-67
2022/04/09 04:07:22;;;;;;;11.00;7.93;;;3.00;99.90;;;;;;5033236;28;20452;-67
2022/04/09 04:09:49;;;;;;;8.83;6.10;;;3.10;99.90;;;;;;5033278;28;20449;-68
2022/04/09 04:12:16;;;;;;;10.83;8.70;;;3.00;99.90;;;;;;5032979;28;20472;-67
2022/04/09 04:14:44;;;;;;;10.53;8.57;;;3.10;99.90;;;;;;5031839;28;20531;-67
2022/04/09 04:17:12;;;;;;;12.33;7.60;;;3.00;99.90;;;;;;5032912;28;20982;-67
2022/04/09 04:19:39;;;;;;;11.13;8.87;;;3.00;99.90;;;;;;5033359;28;20445;-68
2022/04/09 04:22:07;;;;;;;17.60;8.60;;;2.90;99.90;;;;;;5033267;28;20464;-67
2022/04/09 04:24:37;;;;;;;12.23;10.00;;;2.90;99.90;;;;;;5032419;28;21073;-67
2022/04/09 04:27:05;;;;;;;11.60;8.20;;;3.00;99.90;;;;;;5018624;28;20817;-67
2022/04/09 04:29:32;;;;;;;15.27;10.60;;;2.90;99.90;;;;;;5013448;28;20442;-67
2022/04/09 04:32:00;;;;;;;15.00;11.20;;;2.90;99.90;;;;;;5013530;28;20488;-67
2022/04/09 04:34:27;;;;;;;14.67;10.33;;;2.90;99.90;;;;;;5012127;28;20460;-67
2022/04/09 04:36:54;;;;;;;15.20;10.07;;;2.80;99.90;;;;;;5013185;28;20845;-67
2022/04/09 04:39:21;;;;;;;15.10;10.87;;;2.70;99.90;;;;;;5012758;28;20464;-67
2022/04/09 04:41:47;;;;;;;15.10;11.03;;;2.70;99.90;;;;;;5012947;28;20456;-68
2022/04/09 04:44:14;;;;;;;13.67;9.53;;;2.70;99.90;;;;;;5011624;28;20484;-67
2022/04/09 04:46:41;;;;;;;14.53;9.80;;;2.70;99.90;;;;;;5013555;28;20477;-67
2022/04/09 04:49:10;;;;;;;14.77;10.40;;;2.70;99.90;;;;;;5012754;28;20440;-69
2022/04/09 04:51:37;;;;;;;18.17;11.40;;;2.70;99.90;;;;;;5012924;28;20438;-67
2022/04/09 04:54:05;;;;;;;15.90;10.90;;;2.70;99.90;;;;;;5011697;28;20440;-65
2022/04/09 04:56:32;;;;;;;16.60;12.37;;;2.70;99.90;;;;;;5012458;28;20445;-67
2022/04/09 04:58:59;;;;;;;16.50;12.27;;;2.70;99.90;;;;;;5012754;28;20444;-68
2022/04/09 05:01:26;;;;;;;15.90;11.50;;;2.70;99.90;;;;;;5012807;28;20454;-67
2022/04/09 05:03:53;;;;;;;16.27;10.97;;;2.80;99.90;;;;;;5011690;28;20513;-68
2022/04/09 05:06:21;;;;;;;18.20;12.53;;;2.80;99.90;;;;;;5011541;28;20445;-68
2022/04/09 05:08:48;;;;;;;18.10;12.40;;;2.80;99.90;;;;;;5012473;28;20441;-68
2022/04/09 05:11:15;;;;;;;17.03;11.60;;;2.80;99.90;;;;;;5012134;28;20445;-68
2022/04/09 05:13:41;;;;;;;18.43;11.57;;;2.80;99.90;;;;;;5012043;28;20458;-68
2022/04/09 05:16:08;;;;;;;18.30;11.80;;;2.80;99.90;;;;;;5011386;28;20437;-68
2022/04/09 05:18:35;;;;;;;14.13;11.43;;;2.90;99.90;;;;;;5012079;28;20449;-68
2022/04/09 05:21:02;;;;;;;14.80;11.00;;;2.90;99.90;;;;;;5011970;28;20437;-68
2022/04/09 05:23:30;;;;;;;15.67;11.17;;;2.90;99.90;;;;;;5011462;28;20486;-68
2022/04/09 05:25:57;;;;;;;18.40;11.10;;;2.90;99.90;;;;;;5010719;28;20541;-67
2022/04/09 05:28:24;;;;;;;15.20;11.97;;;2.90;99.90;;;;;;5012126;28;20449;-68
2022/04/09 05:30:51;;;;;;;16.03;12.10;;;3.00;99.90;;;;;;5012392;28;20449;-69
2022/04/09 05:33:18;;;;;;;16.30;11.10;;;3.00;99.90;;;;;;5011586;28;20461;-68
2022/04/09 05:35:45;;;;;;;14.80;11.77;;;3.00;99.90;;;;;;5011019;28;20566;-67
2022/04/09 05:38:12;;;;;;;17.53;11.27;;;3.00;99.90;;;;;;5011554;28;20492;-67
2022/04/09 05:40:42;;;;;;;14.33;12.03;;;3.00;99.90;;;;;;5011403;28;20484;-69
2022/04/09 05:43:08;;;;;;;15.73;11.80;;;3.00;99.90;;;;;;5011371;28;20524;-68
2022/04/09 05:45:35;;;;;;;19.43;12.60;;;3.00;99.90;;;;;;5010873;28;20868;-68
2022/04/09 05:48:03;;;;;;;14.03;10.60;;;3.00;99.90;;;;;;5011417;28;20549;-67
2022/04/09 05:50:30;;;;;;;15.97;11.80;;;3.00;99.90;;;;;;5011600;28;20442;-68
2022/04/09 05:52:57;;;;;;;17.40;11.87;;;3.00;99.90;;;;;;5010783;28;20466;-68
2022/04/09 05:55:24;;;;;;;16.37;13.07;;;3.10;99.90;;;;;;5010750;28;20529;-68
2022/04/09 05:57:52;;;;;;;17.37;11.10;;;3.10;99.90;;;;;;5011610;28;20460;-67
2022/04/09 06:00:19;;;;;;;17.70;12.03;;;3.10;99.90;;;;;;5011378;28;20529;-67
2022/04/09 06:02:46;;;;;;;14.50;11.07;;;3.10;99.90;;;;;;5011226;28;20821;-68
2022/04/09 06:05:13;;;;;;;18.33;13.13;;;3.10;99.90;;;;;;5010222;28;20449;-67
2022/04/09 06:07:40;;;;;;;18.13;12.50;;;3.20;99.90;;;;;;5011120;28;20444;-67
2022/04/09 06:10:08;;;;;;;17.70;11.40;;;3.20;99.90;;;;;;5011295;28;20532;-66
2022/04/09 06:12:36;;;;;;;19.40;11.27;;;3.30;99.90;;;;;;5010845;28;20469;-66
2022/04/09 06:15:05;;;;;;;18.40;12.87;;;3.40;99.90;;;;;;5009992;28;20437;-67
2022/04/09 06:17:33;;;;;;;20.83;13.70;;;3.40;99.90;;;;;;5010871;28;20528;-67
2022/04/09 06:20:00;;;;;;;15.53;12.80;;;3.40;99.90;;;;;;5010828;28;20529;-66
2022/04/09 06:22:27;;;;;;;16.93;10.43;;;3.40;99.90;;;;;;5011075;28;20474;-67
2022/04/09 06:24:53;;;;;;;16.73;12.30;;;3.50;99.90;;;;;;5009727;28;20485;-66
2022/04/09 06:27:20;;;;;;;12.50;10.30;;;3.60;99.90;;;;;;5010600;28;21183;-68
2022/04/09 06:29:47;;;;;;;16.57;10.20;;;3.60;99.90;;;;;;5010789;28;20449;-67
2022/04/09 06:32:15;;;;;;;14.53;11.20;;;3.60;99.90;;;;;;5010959;28;20557;-68
2022/04/09 06:34:42;;;;;;;16.43;10.80;;;3.60;99.90;;;;;;5009668;28;20437;-68
2022/04/09 06:37:09;;;;;;;13.20;10.33;;;3.70;99.90;;;;;;5010853;28;20482;-67
2022/04/09 06:39:36;;;;;;;12.93;11.03;;;3.80;99.90;;;;;;5010592;28;20540;-68
2022/04/09 06:42:03;;;;;;;13.00;9.63;;;3.80;99.90;;;;;;5010390;28;21047;-68
2022/04/09 06:44:30;;;;;;;12.53;10.27;;;3.90;99.90;;;;;;5009208;28;20843;-68
2022/04/09 06:46:56;;;;;;;11.97;9.30;;;3.90;99.90;;;;;;5010695;28;20445;-67
2022/04/09 06:49:25;;;;;;;11.23;9.60;;;4.00;99.90;;;;;;5010190;28;20440;-69
2022/04/09 06:51:51;;;;;;;10.80;9.50;;;4.00;99.90;;;;;;5010248;28;20972;-70
2022/04/09 06:54:20;;;;;;;11.20;9.23;;;4.00;99.90;;;;;;5006419;28;20452;-68
2022/04/09 06:56:47;;;;;;;13.40;9.60;;;4.00;99.90;;;;;;5007092;28;20456;-68
2022/04/09 06:59:13;;;;;;;14.33;11.00;;;4.10;99.90;;;;;;5010218;28;20440;-68
2022/04/09 07:01:40;;;;;;;13.63;9.82;;;4.20;99.90;;;;;;5009756;28;20434;-68
2022/04/09 07:04:07;;;;;;;15.23;9.67;;;4.30;99.90;;;;;;5009498;28;20225;-68
2022/04/09 07:06:35;;;;;;;11.70;9.40;;;4.40;99.90;;;;;;5010220;28;20437;-69
2022/04/09 07:09:02;;;;;;;12.67;8.80;;;4.50;99.90;;;;;;5010170;28;20819;-68
2022/04/09 07:11:29;;;;;;;10.90;9.80;;;4.50;99.90;;;;;;5009920;28;20456;-67
2022/04/09 07:13:56;;;;;;;14.37;7.67;;;4.50;99.90;;;;;;5009595;28;20418;-67
2022/04/09 07:16:23;;;;;;;9.43;8.13;;;4.50;99.90;;;;;;5009285;28;20608;-68
2022/04/09 07:18:50;;;;;;;9.80;7.87;;;4.60;99.90;;;;;;5010410;28;20445;-67
2022/04/09 07:21:16;;;;;;;15.20;8.07;;;4.70;99.90;;;;;;5010103;28;20529;-67
2022/04/09 07:23:44;;;;;;;13.73;8.47;;;4.70;99.90;;;;;;5009684;28;20477;-69
2022/04/09 07:26:11;;;;;;;12.87;7.10;;;4.80;99.90;;;;;;5009146;28;20438;-68
2022/04/09 07:28:38;;;;;;;10.57;8.00;;;4.90;99.90;;;;;;5014549;28;20448;-66
2022/04/09 07:31:05;;;;;;;12.20;8.07;;;5.10;99.90;;;;;;5016312;28;21006;-66
2022/04/09 07:33:35;;;;;;;11.77;8.20;;;5.30;99.90;;;;;;5016219;28;20962;-67
2022/04/09 07:36:02;;;;;;;11.80;7.73;;;5.50;99.90;;;;;;5015715;28;20438;-67
2022/04/09 07:38:29;;;;;;;10.60;7.20;;;5.70;99.90;;;;;;5016141;28;20449;-68
2022/04/09 07:40:57;;;;;;;8.43;6.73;;;5.80;99.90;;;;;;5016401;28;20442;-68
2022/04/09 07:43:24;;;;;;;11.00;6.50;;;6.10;99.90;;;;;;5015582;28;20465;-67
2022/04/09 07:45:51;;;;;;;7.50;6.70;;;6.30;99.90;;;;;;5015721;28;20444;-68
2022/04/09 07:48:17;;;;;;;8.40;6.30;;;6.20;99.90;;;;;;5016410;28;20445;-68
2022/04/09 07:50:44;;;;;;;12.07;6.33;;;6.20;99.90;;;;;;5016604;28;20527;-66
2022/04/09 07:53:12;;;;;;;7.10;5.87;;;6.10;99.90;;;;;;5015602;28;20509;-69
2022/04/09 07:55:39;;;;;;;9.13;6.40;;;6.10;99.90;;;;;;5014576;28;20446;-68
2022/04/09 07:58:08;;;;;;;8.87;6.10;;;6.20;99.90;;;;;;5014435;28;20448;-67
2022/04/09 08:00:36;;;;;;;8.17;5.90;;;6.30;99.90;;;;;;5015559;28;20537;-68
2022/04/09 08:03:03;;;;;;;9.70;5.53;;;6.30;99.90;;;;;;5015860;28;20470;-69
2022/04/09 08:05:30;;;;;;;6.30;5.43;;;6.40;99.90;;;;;;5013309;28;20505;-67
2022/04/09 08:07:59;;;;;;;9.00;5.37;;;6.50;99.90;;;;;;5015540;28;20433;-67
2022/04/09 08:10:25;;;;;;;6.13;5.53;;;6.50;99.90;;;;;;5015639;28;20933;-67
2022/04/09 08:12:53;;;;;;;9.80;6.23;;;6.20;99.90;;;;;;5015972;28;20470;-66
2022/04/09 08:15:22;;;;;;;5.80;4.90;;;6.00;99.90;;;;;;5014840;28;20441;-67
2022/04/09 08:17:49;;;;;;;6.70;5.00;;;6.10;99.90;;;;;;5016449;28;20434;-67
2022/04/09 08:20:20;;;;;;;8.10;5.03;;;6.20;99.90;;;;;;5016249;28;20875;-67
2022/04/09 08:22:46;;;;;;;10.17;5.60;;;6.30;99.90;;;;;;5016266;28;20466;-69
2022/04/09 08:25:13;;;;;;;6.67;4.60;;;6.20;99.90;;;;;;5015496;28;20477;-68
2022/04/09 08:27:42;;;;;;;7.87;5.33;;;6.10;99.90;;;;;;5016322;28;20469;-67
2022/04/09 08:30:10;;;;;;;8.50;5.37;;;6.10;99.90;;;;;;4996379;28;20920;-67
2022/04/09 08:32:39;;;;;;;11.43;6.30;;;6.00;99.90;;;;;;4996400;28;20470;-68
2022/04/09 08:35:06;;;;;;;7.70;6.03;;;6.10;99.90;;;;;;4995281;28;20434;-67
2022/04/09 08:37:35;;;;;;;13.37;6.07;;;6.30;99.90;;;;;;4996252;28;20442;-68
2022/04/09 08:40:02;;;;;;;7.03;5.13;;;6.50;99.90;;;;;;4993812;28;20871;-67
2022/04/09 08:42:30;;;;;;;9.63;6.43;;;6.50;99.90;;;;;;4995940;28;20474;-68
2022/04/09 08:44:59;;;;;;;11.73;5.93;;;6.20;99.90;;;;;;5005418;28;20504;-68
2022/04/09 08:47:28;;;;;;;10.43;5.90;;;6.00;99.90;;;;;;5009487;28;20456;-67
2022/04/09 08:49:57;;;;;;;10.33;6.63;;;6.10;99.90;;;;;;4999362;28;20458;-68
2022/04/09 08:52:25;;;;;;;13.03;7.00;;;6.20;99.90;;;;;;5006688;28;20482;-68
2022/04/09 08:54:52;;;;;;;8.27;6.07;;;6.50;99.90;;;;;;5006531;28;20450;-68
2022/04/09 08:57:20;;;;;;;7.63;5.67;;;6.80;99.90;;;;;;5008442;28;20837;-68
2022/04/09 08:59:47;;;;;;;11.87;6.13;;;7.10;99.90;;;;;;5008329;28;20454;-67
2022/04/09 09:02:14;;;;;;;13.73;6.57;;;6.90;99.90;;;;;;5008677;28;20982;-68
2022/04/09 09:04:44;;;;;;;8.97;5.70;;;7.10;99.90;;;;;;4998104;28;20478;-68
2022/04/09 09:07:20;;;;;;;9.37;5.40;;;7.20;99.90;;;;;;5001274;28;20538;-69
2022/04/09 09:09:47;;;;;;;7.53;5.83;;;7.50;99.90;;;;;;5000004;28;20940;-68
2022/04/09 09:12:27;;;;;;;10.43;5.60;;;7.50;99.90;;;;;;5002058;28;20504;-68
2022/04/09 09:14:55;;;;;;;9.33;5.30;;;7.50;99.90;;;;;;5004393;28;20448;-70
2022/04/09 09:17:29;;;;;;;7.17;4.50;;;7.40;99.90;;;;;;5006429;28;20457;-67
2022/04/09 09:19:56;;;;;;;6.17;5.10;;;7.30;99.90;;;;;;5006130;28;20461;-68
2022/04/09 09:22:36;;;;;;;8.43;6.00;;;7.20;99.90;;;;;;5007571;28;20477;-67
2022/04/09 09:25:04;;;;;;;5.33;4.60;;;7.30;99.90;;;;;;5007003;28;20568;-68
2022/04/09 09:27:31;;;;;;;8.47;5.30;;;7.30;99.90;;;;;;5007831;28;20533;-67
2022/04/09 09:29:57;;;;;;;8.67;4.90;;;7.40;99.90;;;;;;5006495;28;20585;-67
2022/04/09 09:32:26;;;;;;;9.97;4.20;;;7.60;99.90;;;;;;5005993;28;20461;-67
2022/04/09 09:34:55;;;;;;;8.50;5.00;;;7.60;99.90;;;;;;5001787;28;20457;-67
2022/04/09 09:37:24;;;;;;;8.40;5.53;;;7.60;99.90;;;;;;5006650;28;20450;-67
2022/04/09 09:39:52;;;;;;;10.93;5.23;;;8.00;99.90;;;;;;5007333;28;20548;-68
2022/04/09 09:42:20;;;;;;;8.30;3.97;;;8.50;99.90;;;;;;5007360;28;22322;-66
2022/04/09 09:44:47;;;;;;;10.03;4.70;;;8.70;99.90;;;;;;5005735;28;20492;-67
2022/04/09 09:47:14;;;;;;;5.87;4.50;;;8.90;99.90;;;;;;5005729;28;20532;-65
2022/04/09 09:49:53;;;;;;;11.10;4.00;;;9.20;99.90;;;;;;5002572;28;20469;-68
2022/04/09 09:52:26;;;;;;;7.07;3.80;;;9.50;99.90;;;;;;5004894;28;20547;-66
2022/04/09 09:55:00;;;;;;;9.13;4.10;;;9.10;99.90;;;;;;5004564;28;20442;-66
2022/04/09 09:57:28;;;;;;;8.80;3.50;;;8.80;99.90;;;;;;5007327;28;20449;-66
2022/04/09 09:59:56;;;;;;;9.47;5.37;;;8.60;99.90;;;;;;5007309;28;20450;-66
2022/04/09 10:02:25;;;;;;;18.87;4.93;;;8.30;99.90;;;;;;5002650;28;20478;-66
2022/04/09 10:04:52;;;;;;;6.30;4.17;;;8.20;99.90;;;;;;5005027;28;20482;-66
2022/04/09 10:07:20;;;;;;;5.30;4.17;;;8.10;99.90;;;;;;5006254;28;20499;-67
2022/04/09 10:09:49;;;;;;;7.40;4.87;;;8.30;99.90;;;;;;5007247;28;20537;-67
2022/04/09 10:12:19;;;;;;;10.00;4.30;;;8.20;99.90;;;;;;5003943;28;20492;-66
2022/04/09 10:14:50;;;;;;;8.33;3.90;;;8.30;99.90;;;;;;5003691;28;20944;-66
2022/04/09 10:17:19;;;;;;;6.87;4.40;;;8.20;99.90;;;;;;5004660;28;20461;-66
2022/04/09 10:19:53;;;;;;;9.37;4.77;;;8.20;99.90;;;;;;5008694;28;20454;-66
2022/04/09 10:22:21;;;;;;;7.13;3.73;;;8.40;99.90;;;;;;5009093;28;20821;-66
2022/04/09 10:24:50;;;;;;;5.50;3.80;;;8.70;99.90;;;;;;5005730;28;20995;-66
2022/04/09 10:27:37;;;;;;;8.70;4.00;;;9.10;99.90;;;;;;5006998;28;20450;-65
2022/04/09 10:30:17;;;;;;;6.73;3.57;;;8.90;99.90;;;;;;5004185;28;20453;-65
2022/04/09 10:32:46;;;;;;;7.80;3.33;;;8.60;99.90;;;;;;5003527;28;20471;-65
2022/04/09 10:35:30;;;;;;;4.77;3.63;;;9.00;99.90;;;;;;5001060;28;20485;-65
2022/04/09 10:38:18;;;;;;;6.57;3.20;;;9.50;99.90;;;;;;5003435;28;20464;-65
2022/04/09 10:41:28;;;;;;;4.87;3.07;;;9.90;99.90;;;;;;5002805;28;20811;-64
2022/04/09 10:43:59;;;;;;;5.53;3.30;;;10.30;99.90;;;;;;4942006;28;20477;-65
2022/04/09 10:46:39;;;;;;;5.97;3.50;;;9.80;99.90;;;;;;4991483;28;20490;-65
2022/04/09 10:49:19;;;;;;;8.23;3.10;;;9.10;99.90;;;;;;5008371;28;20906;-65
2022/04/09 10:52:11;;;;;;;5.47;2.83;;;8.40;99.90;;;;;;5009328;28;20437;-66
2022/04/09 10:54:41;;;;;;;7.70;4.30;;;8.70;99.90;;;;;;5009291;28;20442;-65
2022/04/09 10:57:10;;;;;;;5.40;3.63;;;9.10;99.90;;;;;;5010393;28;20441;-68
2022/04/09 10:59:38;;;;;;;8.63;3.40;;;9.30;99.90;;;;;;4994772;28;20988;-67
2022/04/09 11:02:05;;;;;;;5.37;3.17;;;9.50;99.90;;;;;;5009529;28;20466;-65
2022/04/09 11:04:42;;;;;;;7.30;3.43;;;9.00;99.90;;;;;;5009138;28;20453;-65
2022/04/09 11:07:12;;;;;;;6.00;3.53;;;8.70;99.90;;;;;;5010330;28;20520;-65
2022/04/09 11:09:53;;;;;;;8.90;4.47;;;8.40;99.90;;;;;;4995595;28;20454;-65
2022/04/09 11:12:24;;;;;;;6.00;3.10;;;8.30;99.90;;;;;;5004486;28;20485;-64
2022/04/09 11:14:52;;;;;;;6.97;4.10;;;7.90;99.90;;;;;;5005573;28;20895;-64
2022/04/09 11:17:30;;;;;;;6.90;3.30;;;8.40;99.90;;;;;;5003885;28;20860;-66
2022/04/09 11:20:00;;;;;;;7.37;3.37;;;9.60;99.90;;;;;;5002959;28;20817;-65
2022/04/09 11:22:36;;;;;;;4.47;3.03;;;10.00;99.90;;;;;;5007229;28;20558;-65
2022/04/09 11:25:04;;;;;;;4.83;3.30;;;9.50;99.90;;;;;;5008033;28;20484;-66
2022/04/09 11:27:33;;;;;;;4.97;3.20;;;8.90;99.90;;;;;;5009809;28;20999;-64
2022/04/09 11:30:00;;;;;;;5.67;3.43;;;8.90;99.90;;;;;;5003500;28;20493;-66
2022/04/09 11:32:28;;;;;;;5.40;3.37;;;9.20;99.90;;;;;;5009279;28;20470;-64
2022/04/09 11:34:57;;;;;;;8.00;3.60;;;8.70;99.90;;;;;;5004550;28;20453;-64
2022/04/09 11:37:29;;;;;;;5.73;3.20;;;8.40;99.90;;;;;;5006675;28;20493;-65
2022/04/09 11:39:57;;;;;;;4.60;2.70;;;8.70;99.90;;;;;;5002421;28;20477;-67
2022/04/09 11:42:24;;;;;;;4.73;2.60;;;8.80;99.90;;;;;;4998231;28;20602;-67
2022/04/09 11:44:53;;;;;;;4.93;3.20;;;9.00;99.90;;;;;;4997144;28;20462;-66
2022/04/09 11:47:24;;;;;;;6.10;3.20;;;9.50;99.90;;;;;;4998382;28;20834;-65
2022/04/09 11:49:52;;;;;;;7.40;2.90;;;10.40;99.90;;;;;;4999978;28;20450;-64
2022/04/09 11:52:27;;;;;;;6.27;3.50;;;10.70;99.90;;;;;;4999338;28;20858;-67
2022/04/09 11:54:54;;;;;;;5.90;3.57;;;10.70;99.90;;;;;;5003320;28;20465;-66
2022/04/09 11:57:21;;;;;;;5.60;3.17;;;10.60;99.90;;;;;;4999986;28;20866;-66
2022/04/09 11:59:53;;;;;;;6.60;3.40;;;10.80;99.90;;;;;;5004886;28;20488;-66
2022/04/09 12:02:22;;;;;;;6.17;2.97;;;11.40;99.90;;;;;;5005373;28;20489;-65
2022/04/09 12:04:49;;;;;;;6.47;3.43;;;11.00;99.90;;;;;;5000061;28;21035;-66
2022/04/09 12:07:17;;;;;;;6.77;3.10;;;10.70;99.90;;;;;;5005212;28;20456;-65
2022/04/09 12:09:44;;;;;;;9.07;3.40;;;11.30;99.90;;;;;;5008469;28;20963;-67
2022/04/09 12:12:12;;;;;;;4.80;3.23;;;12.00;98.80;;;;;;5007506;28;20465;-66
2022/04/09 12:14:40;;;;;;;7.37;3.20;;;12.00;97.50;;;;;;5004808;28;20465;-67
2022/04/09 12:17:13;;;;;;;10.80;4.80;;;12.00;98.90;;;;;;5012376;28;20459;-66
2022/04/09 12:19:43;;;;;;;3.97;3.00;;;11.90;99.30;;;;;;5013249;28;20840;-67
2022/04/09 12:22:19;;;;;;;4.30;3.60;;;12.20;97.70;;;;;;5007692;28;20465;-66
2022/04/09 12:24:54;;;;;;;5.60;2.97;;;12.70;97.40;;;;;;5014099;28;20445;-66
2022/04/09 12:27:22;;;;;;;7.20;2.83;;;12.80;97.70;;;;;;5013034;28;20445;-67
2022/04/09 12:29:55;;;;;;;7.87;3.00;;;12.00;96.10;;;;;;5012992;28;20457;-66
2022/04/09 12:32:25;;;;;;;5.70;3.00;;;11.00;98.20;;;;;;5014541;28;20481;-67
2022/04/09 12:34:53;;;;;;;7.37;3.90;;;10.60;98.60;;;;;;5014113;28;20456;-67
2022/04/09 12:37:20;;;;;;;6.70;4.27;;;10.50;99.40;;;;;;5008378;28;20458;-66
2022/04/09 12:39:47;;;;;;;4.13;2.50;;;10.40;99.20;;;;;;5012141;28;20473;-67
2022/04/09 12:42:15;;;;;;;5.23;2.70;;;10.90;99.40;;;;;;5002723;28;21402;-66
2022/04/09 12:44:43;;;;;;;4.73;2.60;;;11.30;96.80;;;;;;5012278;28;20496;-67
2022/04/09 12:47:10;;;;;;;4.80;2.70;;;10.70;95.50;;;;;;5007116;28;20531;-67
2022/04/09 12:49:40;;;;;;;4.57;2.80;;;11.20;95.70;;;;;;5007379;28;20489;-66
2022/04/09 12:52:10;;;;;;;6.03;3.50;;;11.30;97.20;;;;;;5006453;28;20991;-66
2022/04/09 12:54:38;;;;;;;6.87;3.40;;;12.10;96.00;;;;;;5006520;28;20464;-65
2022/04/09 12:57:06;;;;;;;3.80;2.47;;;11.80;94.60;;;;;;5002465;28;20516;-69